Wan Hai 508 — 9VJJ6 — position and weather

sailwx.info

Track history (hours):
 
Tides and Currents Weather Stations Pressure Air Temp Water Temp Dewpoint Dewpoint Depression Visibility Wind Speed Wind Dir Waves Ship Positions

Wan Hai 508

Last reported at 2017-Jan-09 14:30 UTC. Time now 2017-Jan-17 15:09 UTC.
Position N 02°49' E 101°16'.
Warning: this ship's position is 8 days out of date.

Length 269 m; draft 10.1 m.

Type: Cargo ship. MMSI: 565567000.

Date/timePositionNaut miles runAvg speedWind from/ knotsBaromVisibWave heightAir tempDewpointWater temp
2017-Jan-09 14:30N 02°49' E 101°16'82 7.3
2017-Jan-09 03:18N 01°56' E 102°19'1216.2
2017-Jan-09 02:34N 01°51' E 102°30'1616.0
2017-Jan-09 01:33N 01°44' E 102°45'6613.1
2017-Jan-08 20:33N 01°15' E 103°44'4 1.1
2017-Jan-08 17:22N 01°16' E 103°47'0 0.0
2017-Jan-08 16:22N 01°16' E 103°47'0 0.0
2017-Jan-08 15:10N 01°16' E 103°47'0 0.0
2017-Jan-08 14:07N 01°16' E 103°47'0 0.0
2017-Jan-08 10:13N 01°16' E 103°47'0 0.0
2017-Jan-08 09:30N 01°16' E 103°47'1 0.8
2017-Jan-08 08:33N 01°15' E 103°47'4 3.7
2017-Jan-08 07:33N 01°16' E 103°51'0 0.2
2017-Jan-08 06:27N 01°16' E 103°50'0 0.0
2017-Jan-08 05:33N 01°16' E 103°50'0 0.0
2017-Jan-08 04:33N 01°16' E 103°50'0 0.0
2017-Jan-08 03:15N 01°16' E 103°50'0 0.0
2017-Jan-08 02:27N 01°16' E 103°50'0 0.0
2017-Jan-08 01:27N 01°16' E 103°50'0 0.0
2017-Jan-08 00:33N 01°16' E 103°50'0 0.0
2017-Jan-07 23:33N 01°16' E 103°50'0 0.0
2017-Jan-07 22:33N 01°16' E 103°50'0 0.0
2017-Jan-07 21:33N 01°16' E 103°50'0 0.5
2017-Jan-07 20:33N 01°16' E 103°51'5 4.8
2017-Jan-07 19:33N 01°11' E 103°50'7214.3
2017-Jan-07 14:33N 01°40' E 102°44'1917.8
2017-Jan-07 13:30N 01°48' E 102°28'1717.9
2017-Jan-07 12:31N 01°56' E 102°12'  
Track history (hours):
 
Tides and Currents Weather Stations Pressure Air Temp Water Temp Dewpoint Dewpoint Depression Visibility Wind Speed Wind Dir Waves Ship Positions

Wan Hai 508

Last reported at 2017-Jan-09 14:30 UTC. Time now 2017-Jan-17 15:09 UTC.
Position N 02°49' E 101°16'.
Warning: this ship's position is 8 days out of date.

Length 269 m; draft 10.1 m.

Type: Cargo ship. MMSI: 565567000.

Date/timePositionNaut miles runAvg speedWind from/ knotsBaromVisibWave heightAir tempDewpointWater temp
2017-Jan-09 14:30N 02°49' E 101°16'82 7.3
2017-Jan-09 03:18N 01°56' E 102°19'1216.2
2017-Jan-09 02:34N 01°51' E 102°30'1616.0
2017-Jan-09 01:33N 01°44' E 102°45'6613.1
2017-Jan-08 20:33N 01°15' E 103°44'4 1.1
2017-Jan-08 17:22N 01°16' E 103°47'0 0.0
2017-Jan-08 16:22N 01°16' E 103°47'0 0.0
2017-Jan-08 15:10N 01°16' E 103°47'0 0.0
2017-Jan-08 14:07N 01°16' E 103°47'0 0.0
2017-Jan-08 10:13N 01°16' E 103°47'0 0.0
2017-Jan-08 09:30N 01°16' E 103°47'1 0.8
2017-Jan-08 08:33N 01°15' E 103°47'4 3.7
2017-Jan-08 07:33N 01°16' E 103°51'0 0.2
2017-Jan-08 06:27N 01°16' E 103°50'0 0.0
2017-Jan-08 05:33N 01°16' E 103°50'0 0.0
2017-Jan-08 04:33N 01°16' E 103°50'0 0.0
2017-Jan-08 03:15N 01°16' E 103°50'0 0.0
2017-Jan-08 02:27N 01°16' E 103°50'0 0.0
2017-Jan-08 01:27N 01°16' E 103°50'0 0.0
2017-Jan-08 00:33N 01°16' E 103°50'0 0.0
2017-Jan-07 23:33N 01°16' E 103°50'0 0.0
2017-Jan-07 22:33N 01°16' E 103°50'0 0.0
2017-Jan-07 21:33N 01°16' E 103°50'0 0.5
2017-Jan-07 20:33N 01°16' E 103°51'5 4.8
2017-Jan-07 19:33N 01°11' E 103°50'7214.3
2017-Jan-07 14:33N 01°40' E 102°44'1917.8
2017-Jan-07 13:30N 01°48' E 102°28'1717.9
2017-Jan-07 12:31N 01°56' E 102°12'  

Dump ship's entire track history